Asotin, Washington
Current Conditions -  °F | °C
As of 1:56 PM on Thursday 23 Oct 2014 (Local Time) from KLWS Reporting Station
Broken Clouds Broken Clouds  
Wind Chill: 63°   Ceiling: 6500
Heat Index: 63°   Visibility: 10mi
Dew Point: 49°   Wind: 9mph
Humidity: 60%   Direction: 300°WNW
Pressure: 29.82"   Gusts: NA
Location:  46.34°N, 117.05°W
Report Text: KLWS 232056Z 30008KT 10SM BKN065 17/09 A2982 RMK AO2 RAE00 SLP093 P0000 60000 T01720094 53005
Loading
Personal Weather Stations






























Interactive Weather Map
Tropical Storm Tracking
New forecast layout! Learn more

10-Day Weather Forecast

Advertisements
Track Severe Weather on mobile